Time;durP1;ratioP1;P1;durP2;ratioP2;P2;SDS_P1;SDS_P2;PMS_P1;PMS_P2;Temp;Humidity;BMP_temperature;BMP_pressure;BME280_temperature;BME280_humidity;BME280_pressure;Samples;Min_cycle;Max_cycle;Signal;HPM_P1;HPM_P2
2023/12/12 00:00:47;;;;;;;1.10;1.00;;;5.30;99.90;;;;;;5033827;28;20042;-65
2023/12/12 00:03:12;;;;;;;1.23;1.08;;;5.30;99.90;;;;;;5033711;28;20037;-65
2023/12/12 00:05:38;;;;;;;1.02;0.70;;;5.20;99.90;;;;;;5033904;28;20048;-65
2023/12/12 00:08:04;;;;;;;0.98;0.93;;;5.20;99.90;;;;;;5033860;28;20498;-65
2023/12/12 00:10:29;;;;;;;1.25;1.00;;;5.20;99.90;;;;;;5033370;28;20053;-65
2023/12/12 00:12:55;;;;;;;1.17;0.90;;;5.20;99.90;;;;;;5033745;28;20048;-65
2023/12/12 00:15:20;;;;;;;1.77;1.10;;;5.40;99.90;;;;;;5033861;28;20053;-65
2023/12/12 00:17:46;;;;;;;1.33;1.00;;;5.10;99.90;;;;;;5033793;28;20512;-67
2023/12/12 00:20:12;;;;;;;1.58;1.05;;;5.00;99.90;;;;;;5033657;28;20092;-64
2023/12/12 00:22:38;;;;;;;0.90;0.80;;;5.00;99.90;;;;;;5032199;28;20452;-65
2023/12/12 00:25:03;;;;;;;1.05;0.88;;;4.90;99.90;;;;;;5033304;28;20049;-65
2023/12/12 00:27:29;;;;;;;1.30;0.88;;;4.80;99.90;;;;;;5033657;28;20068;-65
2023/12/12 00:29:55;;;;;;;1.75;1.05;;;4.70;99.90;;;;;;5033300;28;20509;-66
2023/12/12 00:32:21;;;;;;;0.93;0.82;;;4.70;99.90;;;;;;5031999;28;20049;-66
2023/12/12 00:34:46;;;;;;;1.00;0.90;;;4.70;99.90;;;;;;5033360;28;20079;-65
2023/12/12 00:37:12;;;;;;;1.13;0.80;;;4.70;99.90;;;;;;5032131;28;20409;-65
2023/12/12 00:39:41;;;;;;;2.40;1.13;;;4.70;99.90;;;;;;5031829;28;20087;-65
2023/12/12 00:42:07;;;;;;;1.48;1.20;;;4.70;99.90;;;;;;5033397;28;20444;-65
2023/12/12 00:44:35;;;;;;;1.00;0.90;;;4.70;99.90;;;;;;5033158;28;20034;-65
2023/12/12 00:47:01;;;;;;;1.23;1.10;;;4.70;99.90;;;;;;5031617;28;20060;-65
2023/12/12 00:49:27;;;;;;;1.15;1.02;;;4.70;99.90;;;;;;5033143;28;20041;-65
2023/12/12 00:51:52;;;;;;;1.55;0.80;;;4.70;99.90;;;;;;5033140;28;20034;-65
2023/12/12 00:54:18;;;;;;;1.20;0.93;;;4.70;99.90;;;;;;5031857;28;20120;-65
2023/12/12 00:56:49;;;;;;;1.55;0.85;;;4.70;99.90;;;;;;5033105;28;20033;-65
2023/12/12 00:59:15;;;;;;;2.92;1.20;;;4.60;99.90;;;;;;5032731;28;20124;-65
2023/12/12 01:01:41;;;;;;;1.60;1.00;;;4.60;99.90;;;;;;5032993;28;20037;-65
2023/12/12 01:04:10;;;;;;;1.48;0.90;;;4.60;99.90;;;;;;5032855;28;20060;-66
2023/12/12 01:06:35;;;;;;;0.80;0.80;;;4.50;99.90;;;;;;5032917;28;20544;-65
2023/12/12 01:09:01;;;;;;;1.30;1.10;;;4.50;99.90;;;;;;5032443;28;20077;-65
2023/12/12 01:11:27;;;;;;;2.20;1.17;;;4.50;99.90;;;;;;5032688;28;20072;-65
2023/12/12 01:13:52;;;;;;;1.30;0.95;;;4.50;99.90;;;;;;5032398;28;20038;-65
2023/12/12 01:16:18;;;;;;;1.10;0.90;;;4.50;99.90;;;;;;5032752;28;20049;-65
2023/12/12 01:18:44;;;;;;;1.00;0.82;;;4.50;99.90;;;;;;5032358;28;20041;-65
2023/12/12 01:21:09;;;;;;;0.88;0.85;;;4.30;99.90;;;;;;5032642;28;20083;-65
2023/12/12 01:23:51;;;;;;;1.02;0.95;;;4.30;99.90;;;;;;5032340;28;20091;-65
2023/12/12 01:26:19;;;;;;;0.80;0.80;;;4.30;99.90;;;;;;5032188;28;20045;-65
2023/12/12 01:28:46;;;;;;;0.70;0.70;;;4.30;99.90;;;;;;5032536;28;20139;-65
2023/12/12 01:31:12;;;;;;;1.92;1.15;;;4.30;99.90;;;;;;5032502;28;20045;-65
2023/12/12 01:33:37;;;;;;;0.95;0.77;;;4.30;99.90;;;;;;5032252;28;20091;-65
2023/12/12 01:36:03;;;;;;;0.98;0.90;;;4.20;99.90;;;;;;5030357;28;20061;-65
2023/12/12 01:38:31;;;;;;;1.00;0.88;;;4.30;99.90;;;;;;5032437;28;20409;-65
2023/12/12 01:40:57;;;;;;;1.40;0.85;;;4.80;99.90;;;;;;5032107;28;20045;-65
2023/12/12 01:43:33;;;;;;;1.02;0.93;;;4.70;99.90;;;;;;5032324;28;20044;-65
2023/12/12 01:46:05;;;;;;;0.70;0.70;;;4.10;99.90;;;;;;5032102;28;20107;-66
2023/12/12 01:48:32;;;;;;;2.30;1.23;;;4.10;99.90;;;;;;5031921;28;20045;-65
2023/12/12 01:50:57;;;;;;;1.50;1.00;;;4.10;99.90;;;;;;5032215;28;20089;-65
2023/12/12 01:53:37;;;;;;;1.42;1.08;;;4.10;99.90;;;;;;5032135;28;20496;-66
2023/12/12 01:56:04;;;;;;;0.70;0.68;;;4.00;99.90;;;;;;5031905;28;20038;-66
2023/12/12 01:58:31;;;;;;;1.33;0.85;;;4.00;99.90;;;;;;5031848;28;20101;-65
2023/12/12 02:00:57;;;;;;;1.80;1.20;;;4.40;99.90;;;;;;5032176;28;20042;-66
2023/12/12 02:03:24;;;;;;;1.67;1.10;;;3.90;99.90;;;;;;5032069;28;20091;-65
2023/12/12 02:05:50;;;;;;;2.20;1.20;;;4.00;99.90;;;;;;5030811;28;20058;-65
2023/12/12 02:08:16;;;;;;;1.02;0.85;;;3.90;99.90;;;;;;5031738;28;20081;-65
2023/12/12 02:10:42;;;;;;;1.08;0.98;;;3.90;99.90;;;;;;5031636;28;20044;-65
2023/12/12 02:13:08;;;;;;;1.17;0.90;;;4.00;99.90;;;;;;5032013;28;20034;-65
2023/12/12 02:15:33;;;;;;;1.13;0.70;;;3.90;99.90;;;;;;5032041;28;20037;-65
2023/12/12 02:17:59;;;;;;;1.70;1.08;;;4.00;99.90;;;;;;5030745;28;20046;-65
2023/12/12 02:20:25;;;;;;;0.70;0.70;;;3.90;99.90;;;;;;5031956;28;20037;-65
2023/12/12 02:22:50;;;;;;;1.08;0.80;;;3.80;99.90;;;;;;5031871;28;20512;-65
2023/12/12 02:25:17;;;;;;;1.25;0.80;;;3.90;99.90;;;;;;5031905;28;20504;-66
2023/12/12 02:27:43;;;;;;;1.60;0.85;;;4.10;99.90;;;;;;5031672;28;20040;-66
2023/12/12 02:30:11;;;;;;;0.60;0.60;;;3.90;99.90;;;;;;5031762;28;20166;-65
2023/12/12 02:32:36;;;;;;;1.83;1.00;;;3.90;99.90;;;;;;5031880;28;20470;-66
2023/12/12 02:35:02;;;;;;;2.65;0.90;;;4.10;99.90;;;;;;5031615;28;20076;-65
2023/12/12 02:37:28;;;;;;;0.80;0.80;;;3.80;99.90;;;;;;5031765;28;20493;-65
2023/12/12 02:39:53;;;;;;;0.98;0.80;;;3.90;99.90;;;;;;5032030;28;20037;-65
2023/12/12 02:42:20;;;;;;;1.65;0.73;;;3.80;99.90;;;;;;5031748;28;20041;-66
2023/12/12 02:44:45;;;;;;;0.90;0.90;;;3.80;99.90;;;;;;5031648;28;20339;-65
2023/12/12 02:47:11;;;;;;;1.33;0.73;;;3.70;99.90;;;;;;5032456;28;20045;-65
2023/12/12 02:49:37;;;;;;;0.75;0.70;;;4.10;99.90;;;;;;5035305;28;20037;-65
2023/12/12 02:52:03;;;;;;;1.75;0.70;;;3.60;99.90;;;;;;5033950;28;20052;-65
2023/12/12 02:54:29;;;;;;;1.30;0.82;;;3.60;99.90;;;;;;5035411;28;20478;-65
2023/12/12 02:56:54;;;;;;;1.88;0.82;;;3.60;99.90;;;;;;5034995;28;20121;-65
2023/12/12 02:59:20;;;;;;;1.15;1.00;;;3.60;99.90;;;;;;5035216;28;20128;-65
2023/12/12 03:01:49;;;;;;;2.47;1.00;;;3.50;99.90;;;;;;5035204;28;20124;-65
2023/12/12 03:04:14;;;;;;;0.82;0.82;;;3.50;99.90;;;;;;5035094;28;20087;-65
2023/12/12 03:06:40;;;;;;;0.80;0.80;;;3.40;99.90;;;;;;5035273;28;20466;-64
2023/12/12 03:09:06;;;;;;;1.05;0.73;;;4.00;99.90;;;;;;5034998;28;20116;-65
2023/12/12 03:11:34;;;;;;;1.23;0.80;;;3.80;99.90;;;;;;5034695;28;20044;-65
2023/12/12 03:14:00;;;;;;;0.70;0.65;;;3.40;99.90;;;;;;5034697;28;20071;-65
2023/12/12 03:16:26;;;;;;;0.93;0.93;;;3.40;99.90;;;;;;5034634;28;20044;-65
2023/12/12 03:18:52;;;;;;;0.80;0.73;;;3.50;99.90;;;;;;5034855;28;20037;-64
2023/12/12 03:21:18;;;;;;;2.47;1.52;;;3.50;99.90;;;;;;5033675;28;20413;-65
2023/12/12 03:23:46;;;;;;;0.70;0.70;;;3.10;99.90;;;;;;5034906;28;20038;-65
2023/12/12 03:26:12;;;;;;;2.05;0.98;;;3.40;99.90;;;;;;5033165;28;20049;-65
2023/12/12 03:28:38;;;;;;;1.88;0.80;;;3.90;99.90;;;;;;5034435;28;20124;-65
2023/12/12 03:31:04;;;;;;;1.60;0.90;;;3.40;99.90;;;;;;5034682;28;20171;-65
2023/12/12 03:33:30;;;;;;;1.00;0.90;;;3.50;99.90;;;;;;5034991;28;20120;-65
2023/12/12 03:35:55;;;;;;;1.67;0.90;;;3.40;99.90;;;;;;5034312;28;20595;-65
2023/12/12 03:38:21;;;;;;;1.48;1.23;;;4.00;99.90;;;;;;5034551;28;20049;-64
2023/12/12 03:40:47;;;;;;;3.33;1.10;;;3.40;99.90;;;;;;5034603;28;20384;-65
2023/12/12 03:43:13;;;;;;;1.42;1.10;;;3.40;99.90;;;;;;5034521;28;20041;-65
2023/12/12 03:45:39;;;;;;;1.40;0.95;;;3.40;99.90;;;;;;5034124;28;20120;-65
2023/12/12 03:48:05;;;;;;;2.53;1.25;;;3.30;99.90;;;;;;5033962;28;20099;-64
2023/12/12 03:50:30;;;;;;;2.15;0.95;;;3.30;99.90;;;;;;5034100;28;20041;-65
2023/12/12 03:52:56;;;;;;;0.85;0.77;;;3.70;99.90;;;;;;5033997;28;20501;-64
2023/12/12 03:55:21;;;;;;;2.42;1.13;;;3.40;99.90;;;;;;5034039;28;20041;-67
2023/12/12 03:57:47;;;;;;;1.95;1.05;;;3.40;99.90;;;;;;5034191;28;20037;-65
2023/12/12 04:00:13;;;;;;;1.55;1.10;;;3.40;99.90;;;;;;5033429;28;20037;-64
2023/12/12 04:02:40;;;;;;;1.77;1.10;;;3.40;99.90;;;;;;5033991;28;20120;-64
2023/12/12 04:05:09;;;;;;;2.00;1.13;;;3.40;99.90;;;;;;5033929;28;20042;-64
2023/12/12 04:07:39;;;;;;;1.05;1.02;;;3.30;99.90;;;;;;5033659;28;20037;-65
2023/12/12 04:10:07;;;;;;;2.35;1.45;;;3.30;99.90;;;;;;5033668;28;20034;-65
2023/12/12 04:12:34;;;;;;;1.30;1.20;;;3.30;99.90;;;;;;5033657;28;20112;-65
2023/12/12 04:15:00;;;;;;;1.45;1.10;;;3.30;99.90;;;;;;5033601;28;20041;-70
2023/12/12 04:17:25;;;;;;;1.60;1.30;;;3.30;99.90;;;;;;5033967;28;20596;-65
2023/12/12 04:19:51;;;;;;;1.02;0.93;;;3.20;99.90;;;;;;5033760;28;20050;-64
2023/12/12 04:22:16;;;;;;;1.73;1.40;;;3.10;99.90;;;;;;5033455;28;20044;-65
2023/12/12 04:24:42;;;;;;;1.30;1.20;;;3.20;99.90;;;;;;5033336;28;20049;-64
2023/12/12 04:27:08;;;;;;;2.60;1.55;;;3.00;99.90;;;;;;5033449;28;20038;-64
2023/12/12 04:29:33;;;;;;;1.65;1.10;;;3.00;99.90;;;;;;5033521;28;20405;-65
2023/12/12 04:31:59;;;;;;;3.03;1.70;;;3.10;99.90;;;;;;5033233;28;20034;-64
2023/12/12 04:34:25;;;;;;;1.50;1.40;;;3.00;99.90;;;;;;5033479;28;20114;-64
2023/12/12 04:36:50;;;;;;;2.38;1.20;;;2.90;99.90;;;;;;5033050;28;20164;-64
2023/12/12 04:39:17;;;;;;;1.50;1.35;;;3.60;99.90;;;;;;5033436;28;20120;-64
2023/12/12 04:41:44;;;;;;;1.40;1.20;;;3.50;99.90;;;;;;5033344;28;20041;-64
2023/12/12 04:44:09;;;;;;;1.42;1.33;;;3.00;99.90;;;;;;5033222;28;20045;-65
2023/12/12 04:46:35;;;;;;;3.03;1.55;;;3.00;99.90;;;;;;5033126;28;20505;-64
2023/12/12 04:49:02;;;;;;;2.72;1.55;;;3.30;99.90;;;;;;5033183;28;20037;-65
2023/12/12 04:51:28;;;;;;;1.77;1.40;;;3.10;99.90;;;;;;5033225;28;20077;-64
2023/12/12 04:53:54;;;;;;;4.10;2.00;;;3.10;99.90;;;;;;5033021;28;20130;-65
2023/12/12 04:56:19;;;;;;;2.25;1.73;;;3.20;99.90;;;;;;5031349;28;20045;-66
2023/12/12 04:58:46;;;;;;;1.92;1.55;;;3.20;99.90;;;;;;5033062;28;20374;-66
2023/12/12 05:01:14;;;;;;;2.40;1.40;;;3.20;99.90;;;;;;5032929;28;20053;-65
2023/12/12 05:03:40;;;;;;;2.20;1.63;;;3.20;99.90;;;;;;5032636;28;20115;-65
2023/12/12 05:06:07;;;;;;;2.47;1.45;;;3.50;99.90;;;;;;5032552;28;20037;-65
2023/12/12 05:08:32;;;;;;;1.77;1.20;;;3.20;99.90;;;;;;5032995;28;20555;-65
2023/12/12 05:10:58;;;;;;;1.60;1.48;;;3.20;99.90;;;;;;5031782;28;20038;-65
2023/12/12 05:13:24;;;;;;;1.25;1.17;;;3.60;99.90;;;;;;5032792;28;20033;-64
2023/12/12 05:15:50;;;;;;;1.90;1.63;;;3.10;99.90;;;;;;5032699;28;20132;-65
2023/12/12 05:18:15;;;;;;;1.65;1.30;;;2.90;99.90;;;;;;5032730;28;20642;-65
2023/12/12 05:20:41;;;;;;;1.95;1.48;;;3.10;99.90;;;;;;5032596;28;20456;-64
2023/12/12 05:23:07;;;;;;;1.92;1.42;;;3.30;99.90;;;;;;5032703;28;20485;-64
2023/12/12 05:25:33;;;;;;;1.77;1.23;;;3.60;99.90;;;;;;5032557;28;20037;-64
2023/12/12 05:27:59;;;;;;;1.73;1.30;;;2.90;99.90;;;;;;5032456;28;20037;-65
2023/12/12 05:30:25;;;;;;;2.58;1.65;;;2.80;99.90;;;;;;5032573;28;20091;-65
2023/12/12 05:32:50;;;;;;;2.17;1.65;;;2.80;99.90;;;;;;5032241;28;20452;-65
2023/12/12 05:35:16;;;;;;;1.60;1.30;;;2.80;99.90;;;;;;5032090;28;20065;-65
2023/12/12 05:37:42;;;;;;;1.58;1.30;;;2.80;99.90;;;;;;5032496;28;20069;-65
2023/12/12 05:40:08;;;;;;;1.63;1.30;;;2.70;99.90;;;;;;5032045;28;20041;-67
2023/12/12 05:42:33;;;;;;;2.15;1.42;;;2.70;99.90;;;;;;5032225;28;20041;-66
2023/12/12 05:44:59;;;;;;;1.90;1.45;;;3.40;99.90;;;;;;5031918;28;20042;-64
2023/12/12 05:47:25;;;;;;;5.97;3.95;;;2.80;99.90;;;;;;5032469;28;20167;-65
2023/12/12 05:49:50;;;;;;;12.18;3.78;;;2.90;99.90;;;;;;5030691;28;20041;-65
2023/12/12 05:52:16;;;;;;;23.83;6.00;;;2.80;99.90;;;;;;5030738;28;20047;-65
2023/12/12 05:54:42;;;;;;;9.32;4.25;;;2.90;99.90;;;;;;5030507;28;20049;-65
2023/12/12 05:57:08;;;;;;;10.68;4.60;;;2.90;99.90;;;;;;5032267;28;20071;-64
2023/12/12 05:59:34;;;;;;;33.78;6.82;;;3.00;99.90;;;;;;5032157;28;20040;-65
2023/12/12 06:02:00;;;;;;;25.90;7.47;;;3.50;99.90;;;;;;5031841;28;20037;-65
2023/12/12 06:04:27;;;;;;;23.90;7.68;;;3.10;99.90;;;;;;5031982;28;20041;-65
2023/12/12 06:06:53;;;;;;;21.50;6.65;;;3.50;99.90;;;;;;5032094;28;20077;-66
2023/12/12 06:09:19;;;;;;;7.72;5.03;;;3.30;99.90;;;;;;5032083;28;20083;-65
2023/12/12 06:11:44;;;;;;;22.05;4.93;;;3.30;99.90;;;;;;5030501;28;20501;-65
2023/12/12 06:14:10;;;;;;;13.80;4.45;;;3.40;99.90;;;;;;5031975;28;20496;-68
2023/12/12 06:16:37;;;;;;;14.25;6.07;;;3.40;99.90;;;;;;5031706;28;20124;-66
2023/12/12 06:19:04;;;;;;;9.95;3.40;;;3.70;99.90;;;;;;5031932;28;20033;-65
2023/12/12 06:21:33;;;;;;;5.30;4.03;;;3.40;99.90;;;;;;5031943;28;20049;-68
2023/12/12 06:24:02;;;;;;;9.85;5.20;;;3.40;99.90;;;;;;5035957;28;20065;-64
2023/12/12 06:26:28;;;;;;;24.63;6.22;;;3.40;99.90;;;;;;5035892;28;20030;-64
2023/12/12 06:28:54;;;;;;;10.68;4.97;;;3.40;99.90;;;;;;5035883;28;20033;-65
2023/12/12 06:31:20;;;;;;;12.93;4.50;;;3.40;99.90;;;;;;5035836;28;20124;-64
2023/12/12 06:33:49;;;;;;;20.35;4.70;;;3.50;99.90;;;;;;5035768;28;20049;-63
2023/12/12 06:36:15;;;;;;;5.30;3.13;;;3.50;99.90;;;;;;5035344;28;20442;-63
2023/12/12 06:38:42;;;;;;;26.70;6.85;;;3.50;99.90;;;;;;5035406;28;20100;-64
2023/12/12 06:41:09;;;;;;;9.45;5.63;;;3.60;99.90;;;;;;5035434;28;20053;-67
2023/12/12 06:43:35;;;;;;;18.88;7.05;;;3.60;99.90;;;;;;5035604;28;20084;-63
2023/12/12 06:46:01;;;;;;;12.70;5.03;;;3.60;99.90;;;;;;5035506;28;20073;-64
2023/12/12 06:48:26;;;;;;;10.90;5.35;;;3.60;99.90;;;;;;5035628;28;20148;-64
2023/12/12 06:50:52;;;;;;;9.75;4.30;;;3.70;99.90;;;;;;5035464;28;20049;-69
2023/12/12 06:53:18;;;;;;;5.28;3.58;;;3.70;99.90;;;;;;5034104;28;20040;-64
2023/12/12 06:55:44;;;;;;;6.95;4.38;;;3.70;99.90;;;;;;5035349;28;20441;-64
2023/12/12 06:58:11;;;;;;;8.98;4.80;;;4.00;99.90;;;;;;5035413;28;20038;-64
2023/12/12 07:00:39;;;;;;;12.90;6.45;;;3.80;99.90;;;;;;5035084;28;20049;-64
2023/12/12 07:03:05;;;;;;;8.27;5.00;;;3.70;99.90;;;;;;5034980;28;20038;-65
2023/12/12 07:05:31;;;;;;;24.35;7.47;;;3.80;99.90;;;;;;5034858;28;20060;-65
2023/12/12 07:07:57;;;;;;;16.27;7.82;;;3.90;99.90;;;;;;5033606;28;20030;-67
2023/12/12 07:10:22;;;;;;;21.13;7.25;;;3.90;99.90;;;;;;5033593;28;20041;-65
2023/12/12 07:12:48;;;;;;;35.05;7.85;;;3.60;99.90;;;;;;5035113;28;20544;-65
2023/12/12 07:15:14;;;;;;;13.18;9.38;;;4.30;99.90;;;;;;5034869;28;20077;-65
2023/12/12 07:17:40;;;;;;;14.57;7.80;;;4.00;99.90;;;;;;5034683;28;20044;-65
2023/12/12 07:20:06;;;;;;;24.27;9.40;;;4.30;99.90;;;;;;5035035;28;20397;-65
2023/12/12 07:22:32;;;;;;;30.33;9.48;;;4.10;99.90;;;;;;5034838;28;20120;-65
2023/12/12 07:24:58;;;;;;;27.15;9.45;;;4.20;99.90;;;;;;5034750;28;20141;-65
2023/12/12 07:27:23;;;;;;;19.45;9.35;;;4.20;99.90;;;;;;5034935;28;20044;-64
2023/12/12 07:29:49;;;;;;;9.55;4.63;;;4.30;99.90;;;;;;5034754;28;20033;-64
2023/12/12 07:32:15;;;;;;;13.75;6.35;;;4.50;99.90;;;;;;5034777;28;20124;-64
2023/12/12 07:34:41;;;;;;;26.00;9.32;;;4.80;99.90;;;;;;5033489;28;20058;-64
2023/12/12 07:37:07;;;;;;;11.52;5.75;;;4.40;99.90;;;;;;5034617;28;20090;-63
2023/12/12 07:39:32;;;;;;;13.10;7.40;;;4.50;99.90;;;;;;5034271;28;20383;-64
2023/12/12 07:41:58;;;;;;;23.15;6.30;;;4.60;99.90;;;;;;5034502;28;20057;-64
2023/12/12 07:44:24;;;;;;;13.70;6.85;;;4.90;99.90;;;;;;5034374;28;20045;-63
2023/12/12 07:46:49;;;;;;;27.90;8.65;;;4.70;99.90;;;;;;5034401;28;20478;-64
2023/12/12 07:49:15;;;;;;;21.95;7.35;;;4.40;99.90;;;;;;5034029;28;20041;-64
2023/12/12 07:51:40;;;;;;;11.80;6.57;;;5.10;99.90;;;;;;5034349;28;20056;-63
2023/12/12 07:54:06;;;;;;;8.52;6.38;;;4.40;99.90;;;;;;5034349;28;20060;-64
2023/12/12 07:56:32;;;;;;;19.98;8.13;;;4.60;99.90;;;;;;5034224;28;20041;-63
2023/12/12 07:58:58;;;;;;;17.63;7.50;;;4.60;99.90;;;;;;5033950;28;20125;-64
2023/12/12 08:01:24;;;;;;;14.43;7.00;;;5.50;99.90;;;;;;5034101;28;20117;-63
2023/12/12 08:03:50;;;;;;;15.15;5.90;;;4.60;99.90;;;;;;5034036;28;20588;-63
2023/12/12 08:06:16;;;;;;;15.05;8.38;;;4.70;99.90;;;;;;5032750;28;20050;-63
2023/12/12 08:08:42;;;;;;;24.48;7.57;;;4.40;99.90;;;;;;5033674;28;20052;-63
2023/12/12 08:11:14;;;;;;;23.98;7.80;;;4.70;99.90;;;;;;5033652;28;20038;-64
2023/12/12 08:13:40;;;;;;;12.52;7.05;;;4.80;99.90;;;;;;5032232;28;20050;-64
2023/12/12 08:16:07;;;;;;;16.27;8.40;;;4.80;99.90;;;;;;5033824;28;20045;-63
2023/12/12 08:18:32;;;;;;;24.05;7.25;;;4.80;99.90;;;;;;5033936;28;20034;-65
2023/12/12 08:20:59;;;;;;;15.35;7.97;;;5.50;99.90;;;;;;5033778;28;20156;-65
2023/12/12 08:23:25;;;;;;;26.80;12.30;;;5.00;99.90;;;;;;5033782;28;20397;-67
2023/12/12 08:25:50;;;;;;;26.27;11.73;;;5.00;99.90;;;;;;5033504;28;20042;-65
2023/12/12 08:28:16;;;;;;;13.05;8.05;;;5.10;99.90;;;;;;5033564;28;20545;-64
2023/12/12 08:30:43;;;;;;;38.45;10.73;;;5.50;99.90;;;;;;5033535;28;20068;-63
2023/12/12 08:33:08;;;;;;;18.60;8.23;;;5.20;99.90;;;;;;5032042;28;20106;-63
2023/12/12 08:35:36;;;;;;;13.93;7.72;;;5.30;99.90;;;;;;5033008;28;20572;-63
2023/12/12 08:38:01;;;;;;;29.23;12.45;;;5.50;99.90;;;;;;5033282;28;20037;-64
2023/12/12 08:40:27;;;;;;;27.23;10.07;;;5.40;99.90;;;;;;5033086;28;20040;-64
2023/12/12 08:42:53;;;;;;;10.93;7.75;;;5.60;99.90;;;;;;5031979;28;20041;-64
2023/12/12 08:45:18;;;;;;;26.02;11.55;;;5.50;99.90;;;;;;5031582;28;20469;-64
2023/12/12 08:47:44;;;;;;;15.20;8.43;;;5.40;99.90;;;;;;5032960;28;20045;-66
2023/12/12 08:50:10;;;;;;;28.33;11.18;;;;;;;;;;5031692;28;20041;-64
2023/12/12 08:52:35;;;;;;;24.00;8.27;;;5.40;99.90;;;;;;5033262;28;20041;-65
2023/12/12 08:55:03;;;;;;;26.55;11.05;;;5.30;99.90;;;;;;5033105;28;20077;-64
2023/12/12 08:57:29;;;;;;;17.83;6.07;;;5.90;99.90;;;;;;5033158;28;20460;-64
2023/12/12 08:59:55;;;;;;;24.92;12.30;;;5.30;99.90;;;;;;5031881;28;20056;-64
2023/12/12 09:02:21;;;;;;;35.35;11.85;;;5.30;99.90;;;;;;5032684;28;20045;-64
2023/12/12 09:04:46;;;;;;;42.45;14.27;;;5.30;99.90;;;;;;5032964;28;20046;-64
2023/12/12 09:07:12;;;;;;;29.65;10.50;;;5.70;99.90;;;;;;5032852;28;20444;-64
2023/12/12 09:09:38;;;;;;;27.77;9.63;;;5.30;99.90;;;;;;5032918;28;20038;-64
2023/12/12 09:12:05;;;;;;;38.20;12.00;;;5.20;99.90;;;;;;5032808;28;20029;-65
2023/12/12 09:14:30;;;;;;;24.95;9.95;;;5.30;99.90;;;;;;5032797;28;20386;-65
2023/12/12 09:16:56;;;;;;;24.23;10.23;;;5.50;99.90;;;;;;5032787;28;20041;-67
2023/12/12 09:19:22;;;;;;;10.20;6.63;;;5.10;99.90;;;;;;5032695;28;20041;-64
2023/12/12 09:21:49;;;;;;;29.45;11.23;;;5.80;99.90;;;;;;5032358;28;20045;-64
2023/12/12 09:24:14;;;;;;;25.23;11.10;;;5.90;99.90;;;;;;5032690;28;20103;-64
2023/12/12 09:26:40;;;;;;;35.15;10.45;;;5.30;99.90;;;;;;5032529;28;20096;-64
2023/12/12 09:29:06;;;;;;;13.38;8.30;;;5.40;99.90;;;;;;5032338;28;20555;-65
2023/12/12 09:31:33;;;;;;;26.27;10.90;;;6.00;99.90;;;;;;5031283;28;20045;-64
2023/12/12 09:33:59;;;;;;;34.92;14.32;;;5.50;99.90;;;;;;5032164;28;20037;-65
2023/12/12 09:36:24;;;;;;;28.65;12.05;;;5.40;99.90;;;;;;5032106;28;20045;-65
2023/12/12 09:38:50;;;;;;;51.60;12.95;;;5.50;99.90;;;;;;5032502;28;20049;-64
2023/12/12 09:41:20;;;;;;;30.63;13.13;;;5.50;99.90;;;;;;5032329;28;20041;-64
2023/12/12 09:43:48;;;;;;;39.03;14.85;;;5.40;99.90;;;;;;5032171;28;20048;-64
2023/12/12 09:46:16;;;;;;;26.30;12.65;;;5.50;99.90;;;;;;5032285;28;20056;-64
2023/12/12 09:48:47;;;;;;;24.65;13.27;;;6.30;99.90;;;;;;5032379;28;20045;-64
2023/12/12 09:51:14;;;;;;;35.25;13.68;;;5.60;99.90;;;;;;5031984;28;20076;-66
2023/12/12 09:53:46;;;;;;;24.27;14.63;;;5.60;99.90;;;;;;5032322;28;20080;-65
2023/12/12 09:56:15;;;;;;;24.55;12.07;;;5.70;99.90;;;;;;5031780;28;20077;-64
2023/12/12 09:58:47;;;;;;;58.60;18.73;;;5.70;99.90;;;;;;5030274;28;20053;-64
2023/12/12 10:01:14;;;;;;;41.10;15.13;;;5.70;99.90;;;;;;5032217;28;20069;-64
2023/12/12 10:03:40;;;;;;;31.75;13.25;;;5.70;99.90;;;;;;5031902;28;20056;-64
2023/12/12 10:06:08;;;;;;;13.90;9.23;;;5.70;99.90;;;;;;5031802;28;20091;-65
2023/12/12 10:08:38;;;;;;;20.55;12.52;;;5.70;99.90;;;;;;5032096;28;20447;-65
2023/12/12 10:11:09;;;;;;;20.30;11.20;;;5.80;99.90;;;;;;5030562;28;20099;-67
2023/12/12 10:13:53;;;;;;;23.30;9.52;;;5.80;99.90;;;;;;5032095;28;20033;-65
2023/12/12 10:16:20;;;;;;;15.65;8.57;;;5.70;99.90;;;;;;5032055;28;20041;-65
2023/12/12 10:18:50;;;;;;;58.25;14.88;;;5.70;99.90;;;;;;5030838;28;20033;-65
2023/12/12 10:21:24;;;;;;;31.52;17.63;;;5.70;99.90;;;;;;5032054;28;20081;-65
2023/12/12 10:23:52;;;;;;;32.00;11.65;;;5.80;99.90;;;;;;5032004;28;20087;-64
2023/12/12 10:26:33;;;;;;;34.50;13.88;;;5.80;99.90;;;;;;5031897;28;20140;-65
2023/12/12 10:29:00;;;;;;;49.35;17.27;;;5.80;99.90;;;;;;5031840;28;20038;-64
2023/12/12 10:31:26;;;;;;;44.28;16.05;;;5.80;99.90;;;;;;5032237;28;20119;-64
2023/12/12 10:33:54;;;;;;;19.20;9.73;;;5.80;99.90;;;;;;5031614;28;20040;-64
2023/12/12 10:36:21;;;;;;;29.60;14.10;;;5.80;99.90;;;;;;5031567;28;20115;-64
2023/12/12 10:38:46;;;;;;;25.60;10.07;;;5.80;99.90;;;;;;5031819;28;20485;-64
2023/12/12 10:41:17;;;;;;;23.58;12.20;;;6.10;99.90;;;;;;5031503;28;20038;-64
2023/12/12 10:43:44;;;;;;;25.73;11.27;;;5.80;99.90;;;;;;5031851;28;20460;-64
2023/12/12 10:46:15;;;;;;;22.88;10.30;;;5.80;99.90;;;;;;5031720;28;20099;-65
2023/12/12 10:48:49;;;;;;;22.27;10.32;;;6.40;99.90;;;;;;5030320;28;20095;-64
2023/12/12 10:51:17;;;;;;;19.60;9.00;;;5.90;99.90;;;;;;5030265;28;20045;-63
2023/12/12 10:53:44;;;;;;;18.92;10.52;;;5.90;99.90;;;;;;5031735;28;20100;-63
2023/12/12 10:56:12;;;;;;;28.60;9.52;;;5.90;99.90;;;;;;5031358;28;20098;-63
2023/12/12 10:58:40;;;;;;;34.25;13.85;;;5.90;99.90;;;;;;5031706;28;20033;-63
2023/12/12 11:01:08;;;;;;;24.85;11.10;;;5.90;99.90;;;;;;5031519;28;20034;-63
2023/12/12 11:03:37;;;;;;;34.00;13.80;;;6.00;99.90;;;;;;5031607;28;20045;-63
2023/12/12 11:06:04;;;;;;;24.13;10.63;;;6.00;99.90;;;;;;5031559;28;20393;-64
2023/12/12 11:08:30;;;;;;;13.02;7.72;;;5.90;99.90;;;;;;5030373;28;20249;-63
2023/12/12 11:10:56;;;;;;;9.25;7.10;;;6.00;99.90;;;;;;5035158;28;20478;-65
2023/12/12 11:13:27;;;;;;;15.93;8.50;;;5.90;99.90;;;;;;5035046;28;20384;-63
2023/12/12 11:15:55;;;;;;;;;;;5.90;99.90;;;;;;5035498;28;20397;-63
2023/12/12 11:18:23;;;;;;;5.70;5.20;;;5.90;99.90;;;;;;5035294;28;20369;-63
2023/12/12 11:20:49;;;;;;;6.93;5.15;;;5.90;99.90;;;;;;5034683;28;20037;-64
2023/12/12 11:23:46;;;;;;;4.47;4.07;;;6.20;99.90;;;;;;5034976;28;20044;-66
2023/12/12 11:26:16;;;;;;;4.75;4.35;;;5.80;99.90;;;;;;5034504;28;20128;-63
2023/12/12 11:28:46;;;;;;;5.50;5.00;;;5.80;99.90;;;;;;5034843;28;20042;-63
2023/12/12 11:31:21;;;;;;;6.03;5.43;;;5.80;99.90;;;;;;5033583;28;20424;-63
2023/12/12 11:34:09;;;;;;;5.13;4.72;;;5.80;99.90;;;;;;5034804;28;20401;-63
2023/12/12 11:36:50;;;;;;;4.95;4.55;;;5.80;99.90;;;;;;5034300;28;20053;-63
2023/12/12 11:39:41;;;;;;;5.20;4.80;;;5.80;99.90;;;;;;5034696;28;20052;-64
2023/12/12 11:42:21;;;;;;;4.38;4.07;;;5.80;99.90;;;;;;5034761;28;20037;-63
2023/12/12 11:44:51;;;;;;;4.50;4.10;;;5.90;99.90;;;;;;5033097;28;20045;-63
2023/12/12 11:47:20;;;;;;;5.05;4.65;;;6.10;99.90;;;;;;5034322;28;20045;-63
2023/12/12 11:49:47;;;;;;;5.07;4.65;;;6.00;99.90;;;;;;5033251;28;20517;-63
2023/12/12 11:52:38;;;;;;;5.15;4.75;;;5.90;99.90;;;;;;5032862;28;20049;-63
2023/12/12 11:55:10;;;;;;;5.40;5.00;;;5.80;99.90;;;;;;5034336;28;20441;-63
2023/12/12 11:57:36;;;;;;;5.85;5.35;;;5.90;99.90;;;;;;5034381;28;20084;-63
2023/12/12 12:00:05;;;;;;;5.30;4.90;;;5.90;99.90;;;;;;5032780;28;20041;-64
2023/12/12 12:02:31;;;;;;;5.10;4.70;;;5.90;99.90;;;;;;5032858;28;20053;-65
2023/12/12 12:04:58;;;;;;;5.25;4.85;;;5.90;99.90;;;;;;5034129;28;20037;-64
2023/12/12 12:07:24;;;;;;;5.00;4.60;;;5.90;99.90;;;;;;5034064;28;20037;-64
2023/12/12 12:09:52;;;;;;;5.70;5.20;;;6.30;99.90;;;;;;5032677;28;20077;-63
2023/12/12 12:12:18;;;;;;;6.05;5.55;;;5.90;99.90;;;;;;5034044;28;20033;-64
2023/12/12 12:14:44;;;;;;;5.63;5.13;;;5.90;99.90;;;;;;5033973;28;20535;-64
2023/12/12 12:17:10;;;;;;;4.60;4.18;;;6.00;99.90;;;;;;5033928;28;20041;-63
2023/12/12 12:19:38;;;;;;;5.30;4.90;;;6.00;99.90;;;;;;5033504;28;20084;-63
2023/12/12 12:22:09;;;;;;;5.15;4.75;;;6.00;99.90;;;;;;5033853;28;20049;-63
2023/12/12 12:24:42;;;;;;;5.90;5.40;;;6.00;99.90;;;;;;5033360;28;20125;-63
2023/12/12 12:27:08;;;;;;;5.60;5.10;;;6.00;99.90;;;;;;5033729;28;20037;-63
2023/12/12 12:29:33;;;;;;;6.38;5.65;;;6.00;99.90;;;;;;5033691;28;20442;-63
2023/12/12 12:32:17;;;;;;;5.45;4.95;;;6.00;99.90;;;;;;5032489;28;20116;-63
2023/12/12 12:34:44;;;;;;;5.90;5.32;;;6.10;99.90;;;;;;5033346;28;20401;-63
2023/12/12 12:37:29;;;;;;;5.63;5.13;;;6.10;99.90;;;;;;5032005;28;20132;-63
2023/12/12 12:39:56;;;;;;;5.88;5.30;;;6.10;99.90;;;;;;5033510;28;20505;-63
2023/12/12 12:42:22;;;;;;;6.22;5.68;;;6.10;99.90;;;;;;5033491;28;20519;-63
2023/12/12 12:44:53;;;;;;;6.18;5.57;;;6.20;99.90;;;;;;5033378;28;20033;-63
2023/12/12 12:47:21;;;;;;;6.07;5.53;;;6.20;99.90;;;;;;5033430;28;20076;-63
2023/12/12 12:49:47;;;;;;;5.70;5.20;;;6.30;99.90;;;;;;5033261;28;20037;-63
2023/12/12 12:52:13;;;;;;;6.70;6.10;;;6.30;99.90;;;;;;5033285;28;20392;-63